createdAt,value
2018-02-07T00:00:33.670Z,1012.35
2018-02-07T00:01:33.598Z,1012.35
2018-02-07T00:02:33.569Z,1012.34
2018-02-07T00:03:33.537Z,1012.33
2018-02-07T00:04:33.510Z,1012.31
2018-02-07T00:05:33.513Z,1012.27
2018-02-07T00:06:33.439Z,1012.27
2018-02-07T00:07:33.414Z,1012.26
2018-02-07T00:08:33.377Z,1012.26
2018-02-07T00:09:33.347Z,1012.27
2018-02-07T00:10:33.349Z,1012.28
2018-02-07T00:11:33.285Z,1012.25
2018-02-07T00:12:33.260Z,1012.27
2018-02-07T00:13:33.224Z,1012.23
2018-02-07T00:14:33.192Z,1012.25
2018-02-07T00:15:33.186Z,1012.24
2018-02-07T00:16:33.123Z,1012.21
2018-02-07T00:17:33.098Z,1012.25
2018-02-07T00:18:33.066Z,1012.21
2018-02-07T00:19:33.036Z,1012.23
2018-02-07T00:20:33.026Z,1012.19
2018-02-07T00:21:32.968Z,1012.19
2018-02-07T00:22:32.937Z,1012.17
2018-02-07T00:23:32.905Z,1012.16
2018-02-07T00:24:32.874Z,1012.17
2018-02-07T00:25:32.869Z,1012.13
2018-02-07T00:26:32.809Z,1012.17
2018-02-07T00:27:32.778Z,1012.18
2018-02-07T00:28:32.755Z,1012.20
2018-02-07T00:29:32.716Z,1012.17
2018-02-07T00:30:32.708Z,1012.16
2018-02-07T00:31:32.677Z,1012.18
2018-02-07T00:32:32.632Z,1012.14
2018-02-07T00:33:32.589Z,1012.14
2018-02-07T00:34:32.557Z,1012.09
2018-02-07T00:35:32.557Z,1012.17
2018-02-07T00:36:32.493Z,1012.19
2018-02-07T00:37:32.460Z,1012.17
2018-02-07T00:38:32.431Z,1012.17
2018-02-07T00:39:32.400Z,1012.19
2018-02-07T00:40:32.394Z,1012.16
2018-02-07T00:41:32.333Z,1012.17
2018-02-07T00:42:32.306Z,1012.15
2018-02-07T00:43:32.270Z,1012.14
2018-02-07T00:44:32.239Z,1012.17
2018-02-07T00:45:32.249Z,1012.16
2018-02-07T00:46:32.177Z,1012.15
2018-02-07T00:47:32.158Z,1012.16
2018-02-07T00:48:32.116Z,1012.14
2018-02-07T00:49:32.090Z,1012.17
2018-02-07T00:50:32.090Z,1012.15
2018-02-07T00:51:32.017Z,1012.19
2018-02-07T00:52:31.991Z,1012.22
2018-02-07T00:53:31.949Z,1012.19
2018-02-07T00:54:31.931Z,1012.15
2018-02-07T00:55:31.932Z,1012.15
2018-02-07T00:56:31.861Z,1012.11
2018-02-07T00:57:31.825Z,1012.12
2018-02-07T00:58:31.794Z,1012.10
2018-02-07T00:59:31.769Z,1012.11
2018-02-07T01:00:31.753Z,1012.09
2018-02-07T01:01:31.704Z,1012.12
2018-02-07T01:02:31.680Z,1012.11
2018-02-07T01:03:31.667Z,1012.12
2018-02-07T01:04:31.609Z,1012.13
2018-02-07T01:05:31.600Z,1012.12
2018-02-07T01:06:31.539Z,1012.09
2018-02-07T01:07:31.508Z,1012.07
2018-02-07T01:08:31.479Z,1012.11
2018-02-07T01:09:31.447Z,1012.11
2018-02-07T01:10:31.444Z,1012.13
2018-02-07T01:11:31.379Z,1012.14
2018-02-07T01:12:31.354Z,1012.16
2018-02-07T01:13:31.329Z,1012.13
2018-02-07T01:14:31.288Z,1012.17
2018-02-07T01:15:31.278Z,1012.13
2018-02-07T01:16:31.222Z,1012.13
2018-02-07T01:17:31.189Z,1012.11
2018-02-07T01:18:31.157Z,1012.15
2018-02-07T01:19:31.148Z,1012.10
2018-02-07T01:20:31.124Z,1012.06
2018-02-07T01:21:31.062Z,1012.05
2018-02-07T01:22:31.035Z,1012.09
2018-02-07T01:23:31.009Z,1012.10
2018-02-07T01:24:30.974Z,1012.10
2018-02-07T01:25:30.965Z,1012.08
2018-02-07T01:26:30.904Z,1012.08
2018-02-07T01:27:30.871Z,1012.12
2018-02-07T01:28:30.841Z,1012.07
2018-02-07T01:29:30.823Z,1012.07
2018-02-07T01:30:30.804Z,1012.07
2018-02-07T01:31:30.742Z,1012.08
2018-02-07T01:32:30.715Z,1012.04
2018-02-07T01:33:30.711Z,1012.02
2018-02-07T01:34:30.647Z,1012.00
2018-02-07T01:35:30.653Z,1011.98
2018-02-07T01:36:30.587Z,1011.99
2018-02-07T01:37:30.556Z,1011.97
2018-02-07T01:38:30.522Z,1011.98
2018-02-07T01:39:30.492Z,1011.93
2018-02-07T01:40:30.487Z,1011.88
2018-02-07T01:41:30.424Z,1011.91
2018-02-07T01:42:30.392Z,1011.90
2018-02-07T01:43:30.361Z,1011.92
2018-02-07T01:44:30.342Z,1011.91
2018-02-07T01:45:30.319Z,1011.94
2018-02-07T01:46:30.262Z,1011.90
2018-02-07T01:47:30.235Z,1011.94
2018-02-07T01:48:30.209Z,1011.93
2018-02-07T01:49:30.175Z,1011.91
2018-02-07T01:50:30.170Z,1011.92
2018-02-07T01:51:30.107Z,1011.96
2018-02-07T01:52:30.074Z,1011.97
2018-02-07T01:53:30.045Z,1011.94
2018-02-07T01:54:30.007Z,1011.90
2018-02-07T01:55:30.011Z,1011.92
2018-02-07T01:56:29.958Z,1011.90
2018-02-07T01:57:29.918Z,1011.88
2018-02-07T01:58:29.881Z,1011.93
2018-02-07T01:59:29.852Z,1011.89
2018-02-07T02:00:29.845Z,1011.96
2018-02-07T02:01:29.786Z,1011.96
2018-02-07T02:02:29.752Z,1012.01
2018-02-07T02:03:29.726Z,1012.02
2018-02-07T02:04:29.685Z,1012.02
2018-02-07T02:05:29.686Z,1011.99
2018-02-07T02:06:29.624Z,1012.03
2018-02-07T02:07:29.592Z,1012.01
2018-02-07T02:08:29.566Z,1012.03
2018-02-07T02:09:29.530Z,1012.03
2018-02-07T02:10:29.523Z,1011.99
2018-02-07T02:11:29.467Z,1012.04
2018-02-07T02:12:29.430Z,1012.09
2018-02-07T02:13:29.403Z,1012.07
2018-02-07T02:14:29.368Z,1012.11
2018-02-07T02:15:29.365Z,1012.07
2018-02-07T02:16:29.308Z,1012.05
2018-02-07T02:17:29.273Z,1012.11
2018-02-07T02:18:29.243Z,1012.07
2018-02-07T02:19:29.216Z,1012.13
2018-02-07T02:20:29.233Z,1012.15
2018-02-07T02:21:29.148Z,1012.18
2018-02-07T02:22:29.124Z,1012.19
2018-02-07T02:23:29.086Z,1012.13
2018-02-07T02:24:29.063Z,1012.10
2018-02-07T02:25:29.043Z,1012.08
2018-02-07T02:26:28.991Z,1012.06
2018-02-07T02:27:28.956Z,1012.13
2018-02-07T02:28:28.926Z,1012.10
2018-02-07T02:29:28.899Z,1012.14
2018-02-07T02:30:28.959Z,1012.12
2018-02-07T02:31:28.835Z,1012.18
2018-02-07T02:32:28.797Z,1012.15
2018-02-07T02:33:28.763Z,1012.15
2018-02-07T02:34:28.751Z,1012.16
2018-02-07T02:35:28.747Z,1012.16
2018-02-07T02:36:28.666Z,1012.11
2018-02-07T02:37:28.635Z,1012.10
2018-02-07T02:38:28.604Z,1012.09
2018-02-07T02:39:28.570Z,1012.08
2018-02-07T02:40:30.031Z,1012.11
2018-02-07T02:41:28.509Z,1012.16
2018-02-07T02:42:28.473Z,1012.14
2018-02-07T02:43:28.450Z,1012.15
2018-02-07T02:44:28.410Z,1012.14
2018-02-07T02:45:28.410Z,1012.18
2018-02-07T02:46:28.345Z,1012.17
2018-02-07T02:47:28.328Z,1012.21
2018-02-07T02:48:28.285Z,1012.22
2018-02-07T02:49:28.253Z,1012.21
2018-02-07T02:50:28.249Z,1012.24
2018-02-07T02:51:28.188Z,1012.20
2018-02-07T02:52:28.152Z,1012.16
2018-02-07T02:53:28.124Z,1012.17
2018-02-07T02:54:28.095Z,1012.10
2018-02-07T02:55:28.082Z,1012.11
2018-02-07T02:56:28.031Z,1012.11
2018-02-07T02:57:27.994Z,1012.15
2018-02-07T02:58:27.979Z,1012.17
2018-02-07T02:59:27.934Z,1012.20
2018-02-07T03:00:27.925Z,1012.22
2018-02-07T03:01:27.874Z,1012.22
2018-02-07T03:02:27.839Z,1012.21
2018-02-07T03:03:27.806Z,1012.20
2018-02-07T03:04:27.775Z,1012.19
2018-02-07T03:05:27.766Z,1012.18
2018-02-07T03:06:27.753Z,1012.15
2018-02-07T03:07:27.677Z,1012.14
2018-02-07T03:08:27.666Z,1012.18
2018-02-07T03:09:27.615Z,1012.11
2018-02-07T03:10:27.610Z,1012.08
2018-02-07T03:11:27.554Z,1012.06
2018-02-07T03:12:27.524Z,1012.01
2018-02-07T03:13:27.489Z,1011.99
2018-02-07T03:14:27.452Z,1011.92
2018-02-07T03:15:27.726Z,1011.95
2018-02-07T03:16:27.390Z,1011.92
2018-02-07T03:17:27.358Z,1011.96
2018-02-07T03:18:27.352Z,1011.95
2018-02-07T03:19:27.299Z,1011.95
2018-02-07T03:20:27.297Z,1012.00
2018-02-07T03:21:27.230Z,1011.97
2018-02-07T03:22:27.198Z,1012.01
2018-02-07T03:23:27.167Z,1012.03
2018-02-07T03:24:27.135Z,1012.06
2018-02-07T03:25:27.150Z,1012.06
2018-02-07T03:26:27.083Z,1012.10
2018-02-07T03:27:27.045Z,1012.12
2018-02-07T03:28:27.009Z,1012.18
2018-02-07T03:29:26.982Z,1012.14
2018-02-07T03:30:26.973Z,1012.10
2018-02-07T03:31:26.919Z,1012.14
2018-02-07T03:32:26.883Z,1012.19
2018-02-07T03:33:26.855Z,1012.24
2018-02-07T03:34:26.817Z,1012.25
2018-02-07T03:35:26.815Z,1012.25
2018-02-07T03:36:26.753Z,1012.26
2018-02-07T03:37:26.722Z,1012.29
2018-02-07T03:38:26.700Z,1012.22
2018-02-07T03:39:26.667Z,1012.14
2018-02-07T03:40:26.657Z,1012.13
2018-02-07T03:41:26.597Z,1012.09
2018-02-07T03:42:26.562Z,1012.06
2018-02-07T03:43:26.530Z,1012.07
2018-02-07T03:44:26.499Z,1012.08
2018-02-07T03:45:26.497Z,1012.03
2018-02-07T03:46:26.439Z,1012.04
2018-02-07T03:47:26.483Z,1012.03
2018-02-07T03:48:26.371Z,1012.02
2018-02-07T03:49:26.344Z,1012.06
2018-02-07T03:50:26.337Z,1012.05
2018-02-07T03:51:26.283Z,1012.05
2018-02-07T03:52:26.247Z,1012.04
2018-02-07T03:53:26.220Z,1012.04
2018-02-07T03:54:26.189Z,1012.00
2018-02-07T03:55:26.174Z,1012.02
2018-02-07T03:56:26.116Z,1012.03
2018-02-07T03:57:26.082Z,1011.97
2018-02-07T03:58:26.055Z,1012.02
2018-02-07T03:59:26.021Z,1012.04
2018-02-07T04:00:26.024Z,1011.97
2018-02-07T04:01:25.957Z,1012.01
2018-02-07T04:02:25.930Z,1011.95
2018-02-07T04:03:25.895Z,1011.96
2018-02-07T04:04:25.872Z,1011.88
2018-02-07T04:05:25.860Z,1011.95
2018-02-07T04:06:25.801Z,1011.90
2018-02-07T04:07:25.764Z,1011.93
2018-02-07T04:08:25.757Z,1011.92
2018-02-07T04:09:25.704Z,1011.92
2018-02-07T04:10:25.697Z,1011.93
2018-02-07T04:11:25.660Z,1011.95
2018-02-07T04:12:25.613Z,1011.96
2018-02-07T04:13:25.582Z,1011.94
2018-02-07T04:14:25.542Z,1011.87
2018-02-07T04:15:25.539Z,1011.90
2018-02-07T04:16:25.484Z,1011.90
2018-02-07T04:17:25.450Z,1011.91
2018-02-07T04:18:25.415Z,1011.92
2018-02-07T04:19:25.384Z,1011.94
2018-02-07T04:20:25.382Z,1011.93
2018-02-07T04:21:25.318Z,1011.91
2018-02-07T04:22:25.286Z,1011.91
2018-02-07T04:23:25.254Z,1011.89
2018-02-07T04:24:25.223Z,1011.92
2018-02-07T04:25:25.223Z,1011.96
2018-02-07T04:26:25.158Z,1011.92
2018-02-07T04:27:25.129Z,1011.89
2018-02-07T04:28:25.094Z,1011.99
2018-02-07T04:29:25.061Z,1011.97
2018-02-07T04:30:25.060Z,1011.95
2018-02-07T04:31:24.998Z,1011.99
2018-02-07T04:32:24.970Z,1012.04
2018-02-07T04:33:24.949Z,1012.03
2018-02-07T04:34:24.911Z,1012.00
2018-02-07T04:35:24.917Z,1012.02
2018-02-07T04:36:24.843Z,1012.04
2018-02-07T04:37:24.807Z,1012.04
2018-02-07T04:38:24.777Z,1012.05
2018-02-07T04:39:24.750Z,1012.03
2018-02-07T04:40:24.714Z,1011.97
2018-02-07T04:41:24.729Z,1012.00
2018-02-07T04:42:24.652Z,1012.03
2018-02-07T04:43:24.619Z,1011.97
2018-02-07T04:44:24.584Z,1012.03
2018-02-07T04:45:24.577Z,1012.07
2018-02-07T04:46:24.529Z,1012.08
2018-02-07T04:47:24.532Z,1012.03
2018-02-07T04:48:24.458Z,1012.07
2018-02-07T04:49:24.436Z,1012.06
2018-02-07T04:50:24.398Z,1012.07
2018-02-07T04:51:24.363Z,1012.04
2018-02-07T04:52:24.372Z,1012.13
2018-02-07T04:53:24.302Z,1012.01
2018-02-07T04:54:25.125Z,1012.07
2018-02-07T04:55:24.235Z,1012.08
2018-02-07T04:56:24.200Z,1012.03
2018-02-07T04:57:24.176Z,1012.03
2018-02-07T04:58:24.172Z,1012.00
2018-02-07T04:59:24.108Z,1012.03
2018-02-07T05:00:24.076Z,1012.00
2018-02-07T05:01:24.044Z,1011.97
2018-02-07T05:02:24.023Z,1012.02
2018-02-07T05:03:24.023Z,1012.01
2018-02-07T05:04:23.990Z,1012.03
2018-02-07T05:05:23.923Z,1012.04
2018-02-07T05:06:23.889Z,1012.07
2018-02-07T05:07:23.865Z,1012.08
2018-02-07T05:08:23.825Z,1012.11
2018-02-07T05:09:23.826Z,1012.13
2018-02-07T05:10:23.755Z,1012.11
2018-02-07T05:11:23.724Z,1012.15
2018-02-07T05:12:23.692Z,1012.10
2018-02-07T05:13:23.672Z,1012.08
2018-02-07T05:14:23.679Z,1012.09
2018-02-07T05:15:23.620Z,1012.07
2018-02-07T05:16:23.563Z,1012.10
2018-02-07T05:17:23.532Z,1012.11
2018-02-07T05:18:23.503Z,1012.09
2018-02-07T05:19:23.468Z,1012.07
2018-02-07T05:20:23.475Z,1012.09
2018-02-07T05:21:23.415Z,1012.08
2018-02-07T05:22:23.380Z,1012.03
2018-02-07T05:23:23.346Z,1012.07
2018-02-07T05:24:23.313Z,1012.07
2018-02-07T05:25:23.315Z,1012.06
2018-02-07T05:26:23.251Z,1012.07
2018-02-07T05:27:23.216Z,1012.05
2018-02-07T05:28:23.212Z,1012.08
2018-02-07T05:29:23.156Z,1012.02
2018-02-07T05:30:23.118Z,1012.07
2018-02-07T05:31:23.125Z,1012.06
2018-02-07T05:32:23.068Z,1012.05
2018-02-07T05:33:23.025Z,1012.07
2018-02-07T05:34:23.003Z,1012.08
2018-02-07T05:35:22.964Z,1012.11
2018-02-07T05:36:22.930Z,1012.12
2018-02-07T05:37:22.932Z,1012.11
2018-02-07T05:38:22.864Z,1012.12
2018-02-07T05:39:22.857Z,1012.12
2018-02-07T05:40:22.810Z,1012.10
2018-02-07T05:41:22.773Z,1012.10
2018-02-07T05:42:22.764Z,1012.10
2018-02-07T05:43:22.708Z,1012.09
2018-02-07T05:44:22.675Z,1012.14
2018-02-07T05:45:22.643Z,1012.12
2018-02-07T05:46:22.612Z,1012.13
2018-02-07T05:47:22.596Z,1012.20
2018-02-07T05:48:22.588Z,1012.16
2018-02-07T05:49:22.535Z,1012.15
2018-02-07T05:50:22.487Z,1012.15
2018-02-07T05:51:22.459Z,1012.17
2018-02-07T05:52:22.423Z,1012.24
2018-02-07T05:53:22.389Z,1012.23
2018-02-07T05:54:22.381Z,1012.22
2018-02-07T05:55:22.326Z,1012.22
2018-02-07T05:56:22.295Z,1012.21
2018-02-07T05:57:22.270Z,1012.23
2018-02-07T05:58:22.240Z,1012.18
2018-02-07T05:59:22.257Z,1012.18
2018-02-07T06:00:22.163Z,1012.25
2018-02-07T06:01:22.139Z,1012.20
2018-02-07T06:02:22.106Z,1012.23
2018-02-07T06:03:22.078Z,1012.19
2018-02-07T06:04:22.040Z,1012.22
2018-02-07T06:05:22.036Z,1012.17
2018-02-07T06:06:21.994Z,1012.22
2018-02-07T06:07:21.945Z,1012.19
2018-02-07T06:08:22.535Z,1012.24
2018-02-07T06:09:21.885Z,1012.22
2018-02-07T06:10:21.891Z,1012.25
2018-02-07T06:11:21.822Z,1012.30
2018-02-07T06:12:21.781Z,1012.31
2018-02-07T06:13:21.757Z,1012.29
2018-02-07T06:14:21.722Z,1012.32
2018-02-07T06:15:21.694Z,1012.31
2018-02-07T06:16:21.689Z,1012.34
2018-02-07T06:17:21.633Z,1012.32
2018-02-07T06:18:21.597Z,1012.32
2018-02-07T06:19:21.563Z,1012.32
2018-02-07T06:20:21.531Z,1012.30
2018-02-07T06:21:21.538Z,1012.31
2018-02-07T06:22:21.473Z,1012.33
2018-02-07T06:23:21.447Z,1012.36
2018-02-07T06:24:21.410Z,1012.34
2018-02-07T06:25:21.372Z,1012.35
2018-02-07T06:26:21.339Z,1012.38
2018-02-07T06:27:21.334Z,1012.45
2018-02-07T06:28:21.279Z,1012.48
2018-02-07T06:29:21.249Z,1012.53
2018-02-07T06:30:21.214Z,1012.48
2018-02-07T06:31:21.200Z,1012.50
2018-02-07T06:32:21.200Z,1012.49
2018-02-07T06:33:21.132Z,1012.50
2018-02-07T06:34:21.092Z,1012.47
2018-02-07T06:35:21.060Z,1012.47
2018-02-07T06:36:21.027Z,1012.44
2018-02-07T06:37:21.014Z,1012.44
2018-02-07T06:38:21.038Z,1012.43
2018-02-07T06:39:20.958Z,1012.44
2018-02-07T06:40:20.902Z,1012.50
2018-02-07T06:41:20.869Z,1012.49
2018-02-07T06:42:20.842Z,1012.51
2018-02-07T06:43:20.908Z,1012.52
2018-02-07T06:44:20.773Z,1012.54
2018-02-07T06:45:20.742Z,1012.51
2018-02-07T06:46:20.710Z,1012.49
2018-02-07T06:47:20.674Z,1012.50
2018-02-07T06:48:20.641Z,1012.44
2018-02-07T06:49:20.637Z,1012.47
2018-02-07T06:50:20.617Z,1012.50
2018-02-07T06:51:21.036Z,1012.48
2018-02-07T06:52:20.519Z,1012.53
2018-02-07T06:53:20.503Z,1012.53
2018-02-07T06:54:20.465Z,1012.53
2018-02-07T06:55:20.482Z,1012.48
2018-02-07T06:56:20.389Z,1012.51
2018-02-07T06:57:20.363Z,1012.54
2018-02-07T06:58:20.333Z,1012.53
2018-02-07T06:59:20.295Z,1012.52
2018-02-07T07:00:20.344Z,1012.50
2018-02-07T07:01:20.261Z,1012.51
2018-02-07T07:02:20.227Z,1012.53
2018-02-07T07:03:20.169Z,1012.52
2018-02-07T07:04:20.163Z,1012.54
2018-02-07T07:05:20.134Z,1012.55
2018-02-07T07:06:20.119Z,1012.53
2018-02-07T07:07:20.047Z,1012.51
2018-02-07T07:08:20.013Z,1012.55
2018-02-07T07:09:20.002Z,1012.54
2018-02-07T07:10:19.994Z,1012.50
2018-02-07T07:11:19.917Z,1012.50
2018-02-07T07:12:19.883Z,1012.48
2018-02-07T07:13:19.853Z,1012.49
2018-02-07T07:14:19.822Z,1012.48
2018-02-07T07:15:19.820Z,1012.53
2018-02-07T07:16:19.766Z,1012.51
2018-02-07T07:17:19.727Z,1012.54
2018-02-07T07:18:19.700Z,1012.51
2018-02-07T07:19:19.666Z,1012.53
2018-02-07T07:20:19.662Z,1012.54
2018-02-07T07:21:19.604Z,1012.58
2018-02-07T07:22:19.658Z,1012.53
2018-02-07T07:23:19.539Z,1012.58
2018-02-07T07:24:19.503Z,1012.61
2018-02-07T07:25:19.517Z,1012.62
2018-02-07T07:26:19.458Z,1012.62
2018-02-07T07:27:19.414Z,1012.65
2018-02-07T07:28:19.383Z,1012.63
2018-02-07T07:29:19.356Z,1012.68
2018-02-07T07:30:19.321Z,1012.65
2018-02-07T07:31:19.322Z,1012.62
2018-02-07T07:32:19.259Z,1012.67
2018-02-07T07:33:19.231Z,1012.68
2018-02-07T07:34:19.193Z,1012.63
2018-02-07T07:35:19.161Z,1012.65
2018-02-07T07:36:19.129Z,1012.71
2018-02-07T07:37:19.135Z,1012.69
2018-02-07T07:38:19.070Z,1012.68
2018-02-07T07:39:19.044Z,1012.71
2018-02-07T07:40:19.010Z,1012.72
2018-02-07T07:41:18.976Z,1012.71
2018-02-07T07:42:18.972Z,1012.72
2018-02-07T07:43:18.915Z,1012.71
2018-02-07T07:44:18.879Z,1012.71
2018-02-07T07:45:18.872Z,1012.68
2018-02-07T07:46:18.826Z,1012.75
2018-02-07T07:47:18.785Z,1012.77
2018-02-07T07:48:18.754Z,1012.80
2018-02-07T07:49:18.723Z,1012.77
2018-02-07T07:50:18.719Z,1012.78
2018-02-07T07:51:18.665Z,1012.80
2018-02-07T07:52:18.667Z,1012.83
2018-02-07T07:53:18.614Z,1012.82
2018-02-07T07:54:18.566Z,1012.87
2018-02-07T07:55:18.559Z,1012.90
2018-02-07T07:56:18.546Z,1012.89
2018-02-07T07:57:18.470Z,1012.87
2018-02-07T07:58:18.477Z,1012.90
2018-02-07T07:59:18.414Z,1012.90
2018-02-07T08:00:18.422Z,1012.91
2018-02-07T08:01:18.349Z,1012.94
2018-02-07T08:02:18.317Z,1012.91
2018-02-07T08:03:18.285Z,1012.94
2018-02-07T08:04:19.038Z,1012.95
2018-02-07T08:05:18.225Z,1012.92
2018-02-07T08:06:18.689Z,1012.92
2018-02-07T08:07:18.448Z,1012.94
2018-02-07T08:08:18.133Z,1012.92
2018-02-07T08:09:18.102Z,1012.97
2018-02-07T08:10:18.068Z,1012.97
2018-02-07T08:11:18.047Z,1012.98
2018-02-07T08:12:18.029Z,1013.01
2018-02-07T08:13:17.979Z,1012.95
2018-02-07T08:14:17.949Z,1012.97
2018-02-07T08:15:17.915Z,1012.98
2018-02-07T08:16:17.885Z,1012.93
2018-02-07T08:17:17.891Z,1012.98
2018-02-07T08:18:17.825Z,1012.96
2018-02-07T08:19:17.794Z,1013.01
2018-02-07T08:20:17.767Z,1012.97
2018-02-07T08:21:17.731Z,1012.96
2018-02-07T08:22:17.726Z,1012.98
2018-02-07T08:23:17.671Z,1012.99
2018-02-07T08:24:17.637Z,1013.04
2018-02-07T08:25:17.636Z,1013.03
2018-02-07T08:26:17.574Z,1013.03
2018-02-07T08:27:17.546Z,1013.02
2018-02-07T08:28:17.520Z,1013.05
2018-02-07T08:29:17.509Z,1013.07
2018-02-07T08:30:17.478Z,1013.06
2018-02-07T08:31:17.419Z,1013.05
2018-02-07T08:32:17.389Z,1013.08
2018-02-07T08:33:17.360Z,1013.06
2018-02-07T08:34:17.333Z,1013.08
2018-02-07T08:35:17.336Z,1013.07
2018-02-07T08:36:17.277Z,1013.07
2018-02-07T08:37:17.238Z,1013.09
2018-02-07T08:38:17.211Z,1013.06
2018-02-07T08:39:17.185Z,1013.05
2018-02-07T08:40:17.194Z,1013.08
2018-02-07T08:41:17.200Z,1013.11
2018-02-07T08:42:17.092Z,1013.07
2018-02-07T08:43:17.057Z,1013.13
2018-02-07T08:44:17.025Z,1013.11
2018-02-07T08:45:17.024Z,1013.13
2018-02-07T08:46:16.974Z,1013.17
2018-02-07T08:47:16.974Z,1013.17
2018-02-07T08:48:16.920Z,1013.16
2018-02-07T08:49:16.878Z,1013.18
2018-02-07T08:50:16.874Z,1013.20
2018-02-07T08:51:16.829Z,1013.23
2018-02-07T08:52:16.801Z,1013.26
2018-02-07T08:53:16.766Z,1013.26
2018-02-07T08:54:16.724Z,1013.28
2018-02-07T08:55:16.749Z,1013.26
2018-02-07T08:56:16.666Z,1013.26
2018-02-07T08:57:16.633Z,1013.26
2018-02-07T08:58:16.604Z,1013.28
2018-02-07T08:59:16.573Z,1013.27
2018-02-07T09:00:16.568Z,1013.26
2018-02-07T09:01:16.514Z,1013.28
2018-02-07T09:02:16.483Z,1013.28
2018-02-07T09:03:16.506Z,1013.28
2018-02-07T09:04:16.432Z,1013.34
2018-02-07T09:05:16.432Z,1013.35
2018-02-07T09:06:16.363Z,1013.38
2018-02-07T09:07:17.127Z,1013.38
2018-02-07T09:08:16.305Z,1013.34
2018-02-07T09:09:16.274Z,1013.40
2018-02-07T09:10:16.269Z,1013.40
2018-02-07T09:11:16.223Z,1013.48
2018-02-07T09:12:16.185Z,1013.68
2018-02-07T09:13:16.156Z,1013.72
2018-02-07T09:14:16.142Z,1013.84
2018-02-07T09:15:16.190Z,1013.92
2018-02-07T09:16:16.066Z,1014.03
2018-02-07T09:17:16.044Z,1014.03
2018-02-07T09:18:16.015Z,1014.00
2018-02-07T09:19:15.986Z,1014.00
2018-02-07T09:20:15.999Z,1014.03
2018-02-07T09:21:15.934Z,1014.09
2018-02-07T09:22:15.903Z,1014.14
2018-02-07T09:23:15.880Z,1014.24
2018-02-07T09:24:15.856Z,1014.24
2018-02-07T09:25:15.901Z,1014.30
2018-02-07T09:26:16.543Z,1014.40
2018-02-07T09:27:16.595Z,1014.43
2018-02-07T09:28:15.753Z,1014.47
2018-02-07T09:29:15.854Z,1014.45
2018-02-07T09:30:15.706Z,1014.45
2018-02-07T09:31:15.708Z,1014.48
2018-02-07T09:32:17.136Z,1014.49
2018-02-07T09:33:15.639Z,1014.56
2018-02-07T09:34:17.046Z,1014.56
2018-02-07T09:35:15.619Z,1014.57
2018-02-07T09:36:15.600Z,1014.52
2018-02-07T09:37:15.537Z,1014.52
2018-02-07T09:38:15.510Z,1014.40
2018-02-07T09:39:15.492Z,1014.17
2018-02-07T09:40:15.464Z,1014.05
2018-02-07T09:41:15.454Z,1014.13
2018-02-07T09:42:15.450Z,1014.07
2018-02-07T09:43:15.424Z,1013.98
2018-02-07T09:44:15.375Z,1014.01
2018-02-07T09:45:15.380Z,1013.97
2018-02-07T09:46:15.349Z,1013.97
2018-02-07T09:47:15.316Z,1014.02
2018-02-07T09:48:15.284Z,1014.02
2018-02-07T09:49:15.263Z,1013.98
2018-02-07T09:50:15.262Z,1013.93
2018-02-07T09:51:15.220Z,1014.02
2018-02-07T09:52:15.189Z,1014.05
2018-02-07T09:53:15.213Z,1014.08
2018-02-07T09:54:15.138Z,1014.07
2018-02-07T09:55:15.117Z,1014.03
2018-02-07T09:56:15.088Z,1014.16
2018-02-07T09:57:15.084Z,1014.28
2018-02-07T09:58:15.046Z,1014.29
2018-02-07T09:59:15.073Z,1014.25
2018-02-07T10:00:14.992Z,1014.25
2018-02-07T10:01:14.965Z,1014.50
2018-02-07T10:02:14.939Z,1014.70
2018-02-07T10:03:14.931Z,1014.96
2018-02-07T10:04:14.930Z,1015.05
2018-02-07T10:05:14.887Z,1015.10
2018-02-07T10:06:14.840Z,1015.10
2018-02-07T10:07:14.817Z,1015.07
2018-02-07T10:08:14.791Z,1015.16
2018-02-07T10:09:14.769Z,1015.50
2018-02-07T10:10:14.768Z,1015.56
2018-02-07T10:11:14.720Z,1015.39
2018-02-07T10:12:14.696Z,1015.30
2018-02-07T10:13:14.672Z,1015.40
2018-02-07T10:14:14.654Z,1015.47
2018-02-07T10:15:14.685Z,1015.56
2018-02-07T10:16:14.603Z,1015.62
2018-02-07T10:17:14.580Z,1015.58
2018-02-07T10:18:14.561Z,1015.50
2018-02-07T10:19:14.586Z,1015.53
2018-02-07T10:20:14.524Z,1015.70
2018-02-07T10:21:14.521Z,1015.84
2018-02-07T10:22:14.477Z,1015.43
2018-02-07T10:23:14.456Z,1015.21
2018-02-07T10:24:14.429Z,1015.08
2018-02-07T10:25:14.406Z,1015.10
2018-02-07T10:26:14.425Z,1015.22
2018-02-07T10:27:14.368Z,1015.19
2018-02-07T10:28:14.355Z,1015.40
2018-02-07T10:29:14.337Z,1015.70
2018-02-07T10:30:14.334Z,1015.53
2018-02-07T10:31:14.284Z,1015.21
2018-02-07T10:32:14.263Z,1015.22
2018-02-07T10:33:14.246Z,1015.42
2018-02-07T10:34:14.220Z,1015.59
2018-02-07T10:35:14.232Z,1015.18
2018-02-07T10:36:14.185Z,1015.41
2018-02-07T10:37:14.166Z,1015.25
2018-02-07T10:38:14.137Z,1015.41
2018-02-07T10:39:14.115Z,1015.56
2018-02-07T10:40:14.174Z,1015.31
2018-02-07T10:41:14.072Z,1015.35
2018-02-07T10:42:14.051Z,1015.11
2018-02-07T10:43:14.034Z,1015.07
2018-02-07T10:44:14.012Z,1014.99
2018-02-07T10:45:14.028Z,1014.95
2018-02-07T10:46:13.973Z,1015.34
2018-02-07T10:47:13.945Z,1015.09
2018-02-07T10:48:13.917Z,1014.97
2018-02-07T10:49:13.948Z,1015.04
2018-02-07T10:50:13.886Z,1015.03
2018-02-07T10:51:13.903Z,1014.68
2018-02-07T10:52:13.836Z,1014.63
2018-02-07T10:53:13.813Z,1014.69
2018-02-07T10:54:13.781Z,1014.79
2018-02-07T10:55:13.762Z,1014.96
2018-02-07T10:56:13.769Z,1015.34
2018-02-07T10:57:13.716Z,1015.93
2018-02-07T10:58:13.695Z,1016.68
2018-02-07T10:59:13.678Z,1015.42
2018-02-07T11:00:13.666Z,1015.24
2018-02-07T11:01:13.626Z,1015.25
2018-02-07T11:02:13.601Z,1015.14
2018-02-07T11:03:13.584Z,1014.99
2018-02-07T11:04:13.550Z,1014.89
2018-02-07T11:05:13.551Z,1014.93
2018-02-07T11:06:13.504Z,1014.76
2018-02-07T11:07:13.483Z,1014.79
2018-02-07T11:08:13.458Z,1014.84
2018-02-07T11:09:13.429Z,1014.89
2018-02-07T11:10:13.440Z,1014.94
2018-02-07T11:11:13.386Z,1015.03
2018-02-07T11:12:13.369Z,1014.64
2018-02-07T11:13:13.338Z,1014.53
2018-02-07T11:14:13.318Z,1014.48
2018-02-07T11:15:13.322Z,1014.49
2018-02-07T11:16:13.262Z,1014.58
2018-02-07T11:17:13.239Z,1014.56
2018-02-07T11:18:13.220Z,1014.38
2018-02-07T11:19:13.195Z,1014.30
2018-02-07T11:20:13.197Z,1014.31
2018-02-07T11:21:13.143Z,1014.38
2018-02-07T11:22:13.119Z,1014.49
2018-02-07T11:23:13.102Z,1014.48
2018-02-07T11:24:13.072Z,1014.62
2018-02-07T11:25:13.079Z,1014.46
2018-02-07T11:26:13.033Z,1014.35
2018-02-07T11:27:13.038Z,1014.40
2018-02-07T11:28:12.968Z,1014.39
2018-02-07T11:29:12.953Z,1014.38
2018-02-07T11:30:12.922Z,1014.44
2018-02-07T11:31:12.895Z,1014.47
2018-02-07T11:32:12.872Z,1014.39
2018-02-07T11:33:12.868Z,1014.31
2018-02-07T11:34:12.820Z,1014.32
2018-02-07T11:35:12.794Z,1014.32
2018-02-07T11:36:12.772Z,1014.27
2018-02-07T11:37:12.741Z,1014.24
2018-02-07T11:38:12.763Z,1014.20
2018-02-07T11:39:12.692Z,1014.18
2018-02-07T11:40:12.669Z,1014.27
2018-02-07T11:41:12.638Z,1014.32
2018-02-07T11:42:12.629Z,1014.42
2018-02-07T11:43:12.598Z,1014.48
2018-02-07T11:44:12.583Z,1014.42
2018-02-07T11:45:12.562Z,1014.47
2018-02-07T11:46:12.512Z,1014.41
2018-02-07T11:47:12.487Z,1014.22
2018-02-07T11:48:12.457Z,1014.21
2018-02-07T11:49:12.432Z,1014.31
2018-02-07T11:50:12.447Z,1014.37
2018-02-07T11:51:12.385Z,1014.23
2018-02-07T11:52:12.399Z,1014.10
2018-02-07T11:53:12.330Z,1014.08
2018-02-07T11:54:12.316Z,1014.11
2018-02-07T11:55:12.283Z,1014.00
2018-02-07T11:56:12.287Z,1013.97
2018-02-07T11:57:12.229Z,1013.96
2018-02-07T11:58:12.197Z,1013.93
2018-02-07T11:59:12.176Z,1013.92
2018-02-07T12:00:12.149Z,1013.94
2018-02-07T12:01:12.152Z,1013.89
2018-02-07T12:02:12.096Z,1013.94
2018-02-07T12:03:12.065Z,1013.96
2018-02-07T12:04:12.037Z,1013.96
2018-02-07T12:05:12.013Z,1013.94